Time;durP1;ratioP1;P1;durP2;ratioP2;P2;SDS_P1;SDS_P2;PMS_P1;PMS_P2;Temp;Humidity;BMP_temperature;BMP_pressure;BME280_temperature;BME280_humidity;BME280_pressure;Samples;Min_cycle;Max_cycle;Signal;HPM_P1;HPM_P2
2021/07/15 00:02:12;;;;;;;0.10;0.10;;;17.80;99.90;;;;;;5033642;28;20177;-86
2021/07/15 00:04:38;;;;;;;0.40;0.10;;;17.90;99.90;;;;;;5032580;28;20190;-86
2021/07/15 00:07:04;;;;;;;0.10;0.10;;;17.90;99.90;;;;;;5020355;28;20770;-86
2021/07/15 00:09:30;;;;;;;0.10;0.10;;;17.90;99.90;;;;;;5035152;28;20178;-85
2021/07/15 00:11:56;;;;;;;0.10;0.10;;;17.90;99.90;;;;;;5036662;28;20277;-86
2021/07/15 00:14:26;;;;;;;0.10;0.10;;;17.90;99.90;;;;;;5054786;28;20180;-85
2021/07/15 00:16:54;;;;;;;0.17;0.17;;;17.90;99.90;;;;;;5054482;28;20623;-86
2021/07/15 00:19:25;;;;;;;0.13;0.13;;;17.80;99.90;;;;;;5054891;28;20187;-86
2021/07/15 00:21:52;;;;;;;0.10;0.10;;;17.80;99.90;;;;;;5036635;28;20239;-86
2021/07/15 00:24:18;;;;;;;0.20;0.20;;;17.80;99.90;;;;;;5054541;28;20314;-86
2021/07/15 00:26:45;;;;;;;0.10;0.10;;;17.80;99.90;;;;;;5035500;28;20295;-86
2021/07/15 00:29:11;;;;;;;0.10;0.10;;;17.80;99.90;;;;;;5054590;28;20239;-86
2021/07/15 00:31:37;;;;;;;0.10;0.10;;;17.60;99.90;;;;;;5033203;28;20182;-86
2021/07/15 00:34:03;;;;;;;0.10;0.10;;;17.70;99.90;;;;;;5036782;28;20177;-85
2021/07/15 00:36:29;;;;;;;0.10;0.10;;;17.80;99.90;;;;;;5036564;28;20212;-86
2021/07/15 00:38:54;;;;;;;0.10;0.10;;;17.80;99.90;;;;;;5054294;28;21113;-86
2021/07/15 00:41:21;;;;;;;0.10;0.10;;;17.80;99.90;;;;;;5036548;28;20201;-86
2021/07/15 00:43:46;;;;;;;0.17;0.17;;;17.80;99.90;;;;;;5054651;28;20184;-86
2021/07/15 00:46:32;;;;;;;0.20;0.20;;;17.80;99.90;;;;;;5053180;28;20197;-86
2021/07/15 00:48:57;;;;;;;0.10;0.10;;;17.90;99.90;;;;;;5053131;28;20551;-86
2021/07/15 00:51:30;;;;;;;0.20;0.20;;;18.00;99.90;;;;;;5035992;28;20274;-86
2021/07/15 00:53:55;;;;;;;0.30;0.30;;;17.80;99.90;;;;;;5036394;28;20689;-88
2021/07/15 00:56:22;;;;;;;0.20;0.20;;;17.80;99.90;;;;;;5053989;28;20202;-86
2021/07/15 00:58:47;;;;;;;0.20;0.20;;;17.90;99.90;;;;;;5023120;28;20189;-86
2021/07/15 01:01:13;;;;;;;0.20;0.20;;;17.90;99.90;;;;;;5036268;28;20253;-86
2021/07/15 01:03:39;;;;;;;0.10;0.10;;;17.90;99.90;;;;;;5036395;28;20618;-87
2021/07/15 01:06:05;;;;;;;0.20;0.20;;;18.00;99.90;;;;;;5035831;28;20236;-87
2021/07/15 01:08:30;;;;;;;0.13;0.13;;;17.80;99.90;;;;;;5054082;28;20227;-86
2021/07/15 01:11:10;;;;;;;0.13;0.13;;;17.70;99.90;;;;;;5040365;28;20484;-87
2021/07/15 01:13:50;;;;;;;0.20;0.20;;;17.70;99.90;;;;;;5042792;28;20178;-86
2021/07/15 01:16:43;;;;;;;0.20;0.20;;;17.50;99.90;;;;;;5036000;28;20225;-86
2021/07/15 01:19:23;;;;;;;0.20;0.20;;;17.60;99.90;;;;;;5040439;28;20181;-87
2021/07/15 01:22:14;;;;;;;0.30;0.30;;;17.60;99.90;;;;;;5052977;28;20208;-86
2021/07/15 01:25:07;;;;;;;0.20;0.20;;;17.50;99.90;;;;;;5034969;28;20531;-86
2021/07/15 01:27:50;;;;;;;0.20;0.20;;;17.60;99.90;;;;;;5034119;28;20192;-86
2021/07/15 01:30:46;;;;;;;0.20;0.20;;;17.60;99.90;;;;;;5053519;28;20653;-88
2021/07/15 01:33:26;;;;;;;0.30;0.30;;;17.80;99.90;;;;;;5025380;28;20536;-86
2021/07/15 01:36:04;;;;;;;0.33;0.33;;;17.70;99.90;;;;;;5033593;28;20205;-86
2021/07/15 01:38:38;;;;;;;0.50;0.47;;;17.70;99.90;;;;;;5034364;28;20556;-86
2021/07/15 01:41:09;;;;;;;0.30;0.30;;;17.80;99.90;;;;;;5032643;28;20196;-86
2021/07/15 01:43:44;;;;;;;0.43;0.43;;;17.70;99.90;;;;;;5053074;28;20171;-86
2021/07/15 01:46:12;;;;;;;0.30;0.30;;;17.80;99.90;;;;;;5035029;28;20193;-86
2021/07/15 01:48:39;;;;;;;0.10;0.10;;;17.80;99.90;;;;;;5035198;28;20179;-86
2021/07/15 01:51:06;;;;;;;0.20;0.20;;;17.70;99.90;;;;;;5035080;28;20185;-87
2021/07/15 01:53:31;;;;;;;0.20;0.20;;;17.90;99.90;;;;;;5052932;28;20185;-86
2021/07/15 01:55:58;;;;;;;0.37;0.37;;;17.80;99.90;;;;;;5053093;28;20687;-86
2021/07/15 01:58:27;;;;;;;7.10;0.60;;;17.70;99.90;;;;;;5035216;28;20186;-86
2021/07/15 02:00:53;;;;;;;0.40;0.40;;;17.70;99.90;;;;;;5052349;28;20259;-86
2021/07/15 02:03:20;;;;;;;0.33;0.33;;;17.80;99.90;;;;;;5035173;28;20185;-87
2021/07/15 02:05:48;;;;;;;0.60;0.23;;;17.90;99.90;;;;;;5035129;28;20289;-86
2021/07/15 02:08:15;;;;;;;0.30;0.30;;;17.80;99.90;;;;;;5052822;28;20169;-86
2021/07/15 02:10:42;;;;;;;0.30;0.30;;;17.80;99.90;;;;;;5034862;28;20204;-86
2021/07/15 02:13:09;;;;;;;0.20;0.20;;;17.90;99.90;;;;;;5035212;28;20594;-85
2021/07/15 02:15:38;;;;;;;0.30;0.30;;;17.80;99.90;;;;;;5031473;28;20229;-86
2021/07/15 02:18:08;;;;;;;0.50;0.50;;;17.60;99.90;;;;;;5051053;28;20683;-86
2021/07/15 02:20:34;;;;;;;0.30;0.30;;;17.70;99.90;;;;;;5034141;28;20288;-86
2021/07/15 02:23:00;;;;;;;1.20;0.90;;;17.60;99.90;;;;;;5038692;28;20270;-86
2021/07/15 02:25:27;;;;;;;0.53;0.53;;;17.20;99.90;;;;;;5036219;28;20690;-86
2021/07/15 02:27:56;;;;;;;7.53;0.50;;;17.00;99.90;;;;;;5052209;28;20174;-86
2021/07/15 02:30:22;;;;;;;0.87;0.77;;;16.90;99.90;;;;;;5034394;28;20235;-87
2021/07/15 02:32:56;;;;;;;0.30;0.30;;;17.00;99.90;;;;;;5051707;28;20185;-86
2021/07/15 02:35:24;;;;;;;0.60;0.60;;;16.90;99.90;;;;;;5052216;28;20201;-86
2021/07/15 02:37:56;;;;;;;0.67;0.67;;;17.00;99.90;;;;;;5034300;28;20212;-86
2021/07/15 02:40:22;;;;;;;0.57;0.47;;;16.80;99.90;;;;;;5052257;28;20671;-87
2021/07/15 02:43:11;;;;;;;0.60;0.60;;;16.80;99.90;;;;;;5034787;28;20269;-86
2021/07/15 02:45:37;;;;;;;0.77;0.43;;;16.70;99.90;;;;;;5051971;28;20208;-86
2021/07/15 02:48:03;;;;;;;0.20;0.20;;;16.70;99.90;;;;;;5040340;28;20177;-87
2021/07/15 02:50:28;;;;;;;0.37;0.33;;;16.80;99.90;;;;;;5049753;28;20215;-86
2021/07/15 02:52:56;;;;;;;0.47;0.47;;;16.80;99.90;;;;;;5052508;28;20184;-87
2021/07/15 02:55:22;;;;;;;0.63;0.40;;;16.60;99.90;;;;;;5034272;28;20292;-86
2021/07/15 02:58:25;;;;;;;0.50;0.50;;;16.80;99.90;;;;;;5048009;28;20181;-86
2021/07/15 03:00:57;;;;;;;0.60;0.60;;;16.60;99.90;;;;;;4977304;28;20278;-86
2021/07/15 03:04:05;;;;;;;0.27;0.27;;;16.60;99.90;;;;;;5040371;28;20196;-87
2021/07/15 03:06:39;;;;;;;0.17;0.17;;;16.60;99.90;;;;;;5034088;28;20240;-87
2021/07/15 03:09:11;;;;;;;0.93;0.73;;;16.70;99.90;;;;;;5034296;28;20262;-87
2021/07/15 03:12:00;;;;;;;0.20;0.20;;;16.70;99.90;;;;;;5033592;28;20201;-87
2021/07/15 03:14:34;;;;;;;0.57;0.47;;;16.80;99.90;;;;;;5034349;28;20183;-85
2021/07/15 03:17:01;;;;;;;0.40;0.40;;;16.90;99.90;;;;;;5046107;28;20235;-86
2021/07/15 03:19:31;;;;;;;0.53;0.53;;;16.90;99.90;;;;;;5048975;28;20218;-86
2021/07/15 03:21:59;;;;;;;0.30;0.30;;;17.00;99.90;;;;;;5030573;28;20294;-86
2021/07/15 03:24:27;;;;;;;0.37;0.37;;;16.80;99.90;;;;;;5031524;28;20272;-87
2021/07/15 03:27:04;;;;;;;0.23;0.23;;;16.60;99.90;;;;;;5049859;28;20204;-86
2021/07/15 03:29:35;;;;;;;0.57;0.53;;;16.80;99.90;;;;;;5027007;28;20175;-90
2021/07/15 03:32:05;;;;;;;0.20;0.20;;;16.80;99.90;;;;;;5031307;28;20662;-87
2021/07/15 03:34:35;;;;;;;0.27;0.27;;;16.60;99.90;;;;;;5030432;28;20184;-87
2021/07/15 03:37:03;;;;;;;0.97;0.47;;;16.40;99.90;;;;;;5029361;28;20204;-86
2021/07/15 03:39:29;;;;;;;0.97;0.67;;;16.60;99.90;;;;;;5029034;28;20669;-86
2021/07/15 03:41:55;;;;;;;0.10;0.10;;;16.60;99.90;;;;;;5030551;28;20243;-86
2021/07/15 03:44:23;;;;;;;0.30;0.30;;;16.60;99.90;;;;;;5052668;28;20268;-86
2021/07/15 03:46:50;;;;;;;0.50;0.50;;;16.70;99.90;;;;;;5054828;28;20230;-86
2021/07/15 03:49:18;;;;;;;0.33;0.33;;;16.60;99.90;;;;;;5037694;28;20177;-87
2021/07/15 03:51:44;;;;;;;0.20;0.20;;;16.80;99.90;;;;;;5050502;28;20203;-86
2021/07/15 03:54:10;;;;;;;0.23;0.23;;;16.90;99.90;;;;;;5037354;28;20252;-86
2021/07/15 03:56:38;;;;;;;0.20;0.20;;;16.90;99.90;;;;;;5036693;28;20218;-89
2021/07/15 03:59:04;;;;;;;0.10;0.10;;;16.80;99.90;;;;;;5037204;28;20236;-87
2021/07/15 04:01:34;;;;;;;3.13;0.27;;;16.70;99.90;;;;;;5037142;28;20266;-86
2021/07/15 04:04:02;;;;;;;0.20;0.20;;;16.60;99.90;;;;;;5037405;28;20184;-86
2021/07/15 04:06:29;;;;;;;0.50;0.40;;;16.80;99.90;;;;;;5035130;28;20228;-86
2021/07/15 04:08:59;;;;;;;0.43;0.43;;;16.50;99.90;;;;;;5044479;28;20182;-86
2021/07/15 04:11:26;;;;;;;0.20;0.20;;;16.60;99.90;;;;;;5027617;28;20184;-86
2021/07/15 04:13:52;;;;;;;0.30;0.30;;;16.70;99.90;;;;;;5055426;28;20216;-86
2021/07/15 04:16:44;;;;;;;0.67;0.40;;;16.50;99.90;;;;;;5036963;28;20221;-85
2021/07/15 04:19:12;;;;;;;1.83;0.40;;;16.50;99.90;;;;;;5036724;28;20730;-86
2021/07/15 04:21:39;;;;;;;0.20;0.20;;;16.60;99.90;;;;;;5035158;28;20234;-88
2021/07/15 04:24:06;;;;;;;0.20;0.20;;;16.70;99.90;;;;;;5034442;28;20192;-86
2021/07/15 04:26:32;;;;;;;0.30;0.30;;;16.70;99.90;;;;;;5036853;28;20579;-86
2021/07/15 04:28:59;;;;;;;0.60;0.60;;;16.60;99.90;;;;;;5034442;28;20187;-86
2021/07/15 04:31:55;;;;;;;0.20;0.20;;;16.60;99.90;;;;;;5036502;28;20192;-86
2021/07/15 04:34:23;;;;;;;0.27;0.27;;;16.70;99.90;;;;;;5050099;28;20268;-86
2021/07/15 04:36:49;;;;;;;0.10;0.10;;;17.00;99.90;;;;;;5029840;28;20199;-86
2021/07/15 04:39:15;;;;;;;0.23;0.23;;;16.90;99.90;;;;;;5052413;28;20190;-86
2021/07/15 04:41:43;;;;;;;0.77;0.20;;;16.90;99.90;;;;;;5051230;28;20205;-86
2021/07/15 04:44:12;;;;;;;0.30;0.30;;;16.80;99.90;;;;;;5054432;28;20247;-86
2021/07/15 04:46:38;;;;;;;0.27;0.27;;;16.90;99.90;;;;;;5054441;28;20681;-86
2021/07/15 04:49:07;;;;;;;0.20;0.20;;;16.90;99.90;;;;;;5036389;28;20189;-86
2021/07/15 04:51:34;;;;;;;0.20;0.20;;;16.80;99.90;;;;;;5054191;28;20181;-86
2021/07/15 04:54:00;;;;;;;0.30;0.30;;;17.00;99.90;;;;;;5036699;28;20686;-86
2021/07/15 04:56:26;;;;;;;0.20;0.20;;;17.00;99.90;;;;;;5034518;28;20205;-87
2021/07/15 04:58:53;;;;;;;0.37;0.37;;;17.20;99.90;;;;;;5053828;28;20187;-86
2021/07/15 05:01:19;;;;;;;1.70;0.60;;;17.30;99.90;;;;;;5053584;28;20240;-86
2021/07/15 05:03:45;;;;;;;0.20;0.20;;;17.50;99.90;;;;;;5036608;28;20216;-86
2021/07/15 05:06:11;;;;;;;0.20;0.20;;;17.50;99.90;;;;;;5046660;28;20294;-86
2021/07/15 05:08:39;;;;;;;0.30;0.30;;;17.50;99.90;;;;;;5053966;28;20193;-86
2021/07/15 05:11:06;;;;;;;0.33;0.33;;;17.50;99.90;;;;;;5053933;28;20185;-85
2021/07/15 05:13:31;;;;;;;0.50;0.50;;;17.60;99.90;;;;;;5051029;28;20196;-85
2021/07/15 05:15:57;;;;;;;0.80;0.80;;;17.70;99.90;;;;;;5051825;28;20231;-84
2021/07/15 05:18:23;;;;;;;0.43;0.27;;;17.70;99.90;;;;;;5035680;28;20185;-85
2021/07/15 05:20:54;;;;;;;0.67;0.53;;;17.40;99.90;;;;;;5047985;28;20201;-85
2021/07/15 05:23:20;;;;;;;1.00;1.00;;;17.40;99.90;;;;;;5031067;28;20597;-87
2021/07/15 05:25:46;;;;;;;0.30;0.30;;;17.40;99.90;;;;;;5036398;28;20565;-86
2021/07/15 05:28:12;;;;;;;0.37;0.37;;;17.30;99.90;;;;;;5032993;28;20177;-87
2021/07/15 05:30:38;;;;;;;0.70;0.27;;;17.30;99.90;;;;;;5031113;28;20258;-87
2021/07/15 05:33:03;;;;;;;0.33;0.33;;;17.30;99.90;;;;;;5035338;28;20405;-87
2021/07/15 05:35:29;;;;;;;0.20;0.20;;;17.20;99.90;;;;;;5039087;28;20235;-86
2021/07/15 05:37:55;;;;;;;0.47;0.47;;;17.20;99.90;;;;;;5052691;28;20197;-87
2021/07/15 05:40:20;;;;;;;1.23;0.40;;;17.40;99.90;;;;;;5034377;28;20209;-86
2021/07/15 05:42:46;;;;;;;0.30;0.30;;;17.40;99.90;;;;;;5047736;28;20243;-88
2021/07/15 05:45:12;;;;;;;0.43;0.23;;;17.40;99.90;;;;;;5028833;28;20273;-86
2021/07/15 05:47:37;;;;;;;1.87;1.67;;;17.60;99.90;;;;;;5056600;28;20849;-87
2021/07/15 05:50:07;;;;;;;0.47;0.47;;;17.50;99.90;;;;;;5038008;28;20199;-87
2021/07/15 05:52:32;;;;;;;0.50;0.50;;;17.60;99.90;;;;;;5031575;28;20189;-87
2021/07/15 05:54:58;;;;;;;0.47;0.40;;;17.70;99.90;;;;;;5029425;28;20564;-87
2021/07/15 05:57:25;;;;;;;0.40;0.40;;;17.50;99.90;;;;;;5034431;28;20191;-85
2021/07/15 05:59:50;;;;;;;0.60;0.43;;;17.40;99.90;;;;;;5030375;28;20181;-85
2021/07/15 06:02:17;;;;;;;0.93;0.30;;;17.50;99.90;;;;;;5053095;28;20281;-86
2021/07/15 06:04:43;;;;;;;0.30;0.30;;;17.50;99.90;;;;;;5034875;28;20242;-86
2021/07/15 06:07:08;;;;;;;0.60;0.60;;;17.50;99.90;;;;;;5043622;28;20185;-86
2021/07/15 06:09:34;;;;;;;0.23;0.23;;;17.50;99.90;;;;;;5035152;28;20231;-86
2021/07/15 06:12:00;;;;;;;0.30;0.23;;;17.90;99.90;;;;;;5052280;28;20551;-84
2021/07/15 06:14:26;;;;;;;0.20;0.20;;;18.20;99.90;;;;;;5050978;28;20232;-84
2021/07/15 06:16:51;;;;;;;0.40;0.40;;;18.60;99.90;;;;;;5032693;28;20208;-84
2021/07/15 06:19:17;;;;;;;0.50;0.50;;;18.80;99.90;;;;;;5031468;28;20225;-84
2021/07/15 06:21:43;;;;;;;0.33;0.33;;;19.20;99.90;;;;;;5031908;28;20204;-84
2021/07/15 06:24:09;;;;;;;0.40;0.40;;;19.20;99.90;;;;;;5021786;28;20268;-83
2021/07/15 06:26:36;;;;;;;0.40;0.40;;;19.20;99.90;;;;;;5021872;28;20206;-83
2021/07/15 06:29:02;;;;;;;0.20;0.20;;;19.10;99.90;;;;;;5023719;28;20671;-83
2021/07/15 06:31:27;;;;;;;0.20;0.20;;;19.30;99.90;;;;;;5047720;28;20688;-83
2021/07/15 06:33:53;;;;;;;0.47;0.47;;;18.90;99.90;;;;;;5033066;28;20226;-82
2021/07/15 06:36:19;;;;;;;0.50;0.50;;;18.70;99.90;;;;;;5032200;28;20220;-83
2021/07/15 06:38:46;;;;;;;0.20;0.20;;;19.00;99.90;;;;;;5032618;28;20222;-83
2021/07/15 06:41:11;;;;;;;0.43;0.43;;;19.20;99.90;;;;;;5048303;28;20694;-83
2021/07/15 06:43:39;;;;;;;0.67;0.60;;;18.50;99.90;;;;;;5028567;28;20211;-83
2021/07/15 06:46:05;;;;;;;0.30;0.30;;;18.40;99.90;;;;;;5034674;28;20208;-83
2021/07/15 06:48:31;;;;;;;0.40;0.40;;;18.50;99.90;;;;;;5036261;28;20268;-83
2021/07/15 06:50:57;;;;;;;0.10;0.10;;;19.00;99.90;;;;;;5049141;28;20260;-83
2021/07/15 06:53:23;;;;;;;0.20;0.20;;;19.60;99.90;;;;;;5033628;28;20189;-83
2021/07/15 06:55:49;;;;;;;0.33;0.30;;;19.50;99.90;;;;;;5050047;28;20216;-83
2021/07/15 06:58:14;;;;;;;0.23;0.23;;;20.30;99.90;;;;;;5050214;28;20552;-83
2021/07/15 07:00:40;;;;;;;0.40;0.40;;;20.60;99.90;;;;;;5047579;28;20272;-82
2021/07/15 07:03:06;;;;;;;0.50;0.20;;;20.70;99.90;;;;;;5026711;28;20320;-82
2021/07/15 07:05:32;;;;;;;0.17;0.17;;;20.90;99.90;;;;;;5051429;28;20190;-83
2021/07/15 07:07:58;;;;;;;0.30;0.30;;;20.80;99.90;;;;;;5052010;28;20185;-83
2021/07/15 07:10:24;;;;;;;0.40;0.40;;;20.90;99.90;;;;;;5051193;28;20192;-82
2021/07/15 07:12:50;;;;;;;0.40;0.40;;;21.00;99.90;;;;;;5034045;28;20661;-83
2021/07/15 07:15:18;;;;;;;0.77;0.47;;;21.30;99.90;;;;;;5033447;28;20308;-83
2021/07/15 07:17:44;;;;;;;0.40;0.40;;;21.60;99.90;;;;;;5033303;28;20170;-82
2021/07/15 07:20:12;;;;;;;0.20;0.20;;;21.60;99.90;;;;;;5036300;28;20279;-83
2021/07/15 07:22:38;;;;;;;0.40;0.30;;;21.90;99.90;;;;;;5038126;28;20193;-83
2021/07/15 07:25:08;;;;;;;0.73;0.73;;;21.70;99.90;;;;;;5055565;28;20705;-83
2021/07/15 07:27:35;;;;;;;0.30;0.30;;;22.00;99.90;;;;;;5037454;28;20182;-83
2021/07/15 07:30:02;;;;;;;1.50;0.40;;;21.80;99.90;;;;;;5055444;28;20182;-82
2021/07/15 07:32:27;;;;;;;0.37;0.37;;;22.10;99.90;;;;;;5037063;28;20177;-83
2021/07/15 07:34:53;;;;;;;0.13;0.13;;;21.60;99.90;;;;;;5055676;28;20724;-82
2021/07/15 07:37:19;;;;;;;0.50;0.50;;;20.80;99.90;;;;;;5038215;28;20208;-82
2021/07/15 07:39:45;;;;;;;0.30;0.30;;;20.70;99.90;;;;;;5036994;28;20177;-82
2021/07/15 07:42:11;;;;;;;0.20;0.20;;;20.70;99.90;;;;;;5037790;28;20213;-83
2021/07/15 07:44:37;;;;;;;0.27;0.27;;;20.30;99.90;;;;;;5055721;28;20177;-83
2021/07/15 07:47:03;;;;;;;0.20;0.20;;;20.70;99.90;;;;;;5054195;28;20205;-83
2021/07/15 07:49:28;;;;;;;0.10;0.10;;;20.70;99.90;;;;;;5036981;28;20515;-83
2021/07/15 07:51:54;;;;;;;0.20;0.20;;;21.00;99.90;;;;;;5037359;28;20279;-83
2021/07/15 07:54:20;;;;;;;0.20;0.20;;;20.80;99.90;;;;;;5054866;28;20320;-83
2021/07/15 07:56:45;;;;;;;0.13;0.13;;;21.20;99.90;;;;;;5036763;28;20221;-82
2021/07/15 07:59:11;;;;;;;0.30;0.30;;;21.50;99.90;;;;;;5054830;28;20193;-82
2021/07/15 08:01:38;;;;;;;0.67;0.40;;;21.30;99.90;;;;;;5037188;28;20753;-83
2021/07/15 08:04:04;;;;;;;0.43;0.43;;;21.10;99.90;;;;;;5054791;28;20178;-83
2021/07/15 08:06:34;;;;;;;0.10;0.10;;;21.10;99.90;;;;;;5036797;28;20263;-83
2021/07/15 08:09:03;;;;;;;0.37;0.37;;;21.70;99.90;;;;;;5052130;28;20182;-82
2021/07/15 08:11:30;;;;;;;0.10;0.10;;;21.90;99.90;;;;;;5048383;28;20197;-82
2021/07/15 08:13:56;;;;;;;0.20;0.20;;;22.60;99.90;;;;;;5034592;28;20178;-83
2021/07/15 08:16:21;;;;;;;0.20;0.20;;;22.00;99.90;;;;;;5037649;28;20220;-84
2021/07/15 08:18:47;;;;;;;0.20;0.20;;;21.20;99.90;;;;;;5053329;28;20584;-84
2021/07/15 08:21:20;;;;;;;0.17;0.17;;;20.70;99.90;;;;;;5046071;28;20220;-84
2021/07/15 08:23:47;;;;;;;0.20;0.20;;;21.00;99.90;;;;;;5034956;28;20212;-83
2021/07/15 08:26:13;;;;;;;0.10;0.10;;;22.10;99.90;;;;;;5034182;28;20205;-83
2021/07/15 08:28:38;;;;;;;0.17;0.17;;;22.90;99.90;;;;;;5026204;28;20188;-84
2021/07/15 08:31:04;;;;;;;0.10;0.10;;;23.50;99.90;;;;;;5055498;28;20188;-84
2021/07/15 08:33:30;;;;;;;0.20;0.20;;;23.60;99.90;;;;;;5034416;28;20197;-84
2021/07/15 08:35:56;;;;;;;0.27;0.20;;;23.60;99.90;;;;;;5030543;28;20292;-84
2021/07/15 08:38:22;;;;;;;0.10;0.10;;;24.10;99.90;;;;;;5030164;28;20186;-84
2021/07/15 08:40:49;;;;;;;0.27;0.27;;;23.60;99.90;;;;;;5051586;28;20677;-83
2021/07/15 08:43:15;;;;;;;0.67;0.30;;;23.50;99.90;;;;;;5035178;28;20654;-84
2021/07/15 08:45:42;;;;;;;0.20;0.20;;;23.40;99.90;;;;;;5035914;28;20212;-83
2021/07/15 08:48:10;;;;;;;0.20;0.20;;;23.30;99.90;;;;;;5052025;28;20182;-84
2021/07/15 08:50:37;;;;;;;0.37;0.27;;;23.90;99.90;;;;;;5031115;28;20285;-84
2021/07/15 08:53:03;;;;;;;0.10;0.10;;;23.40;99.90;;;;;;5034596;28;20181;-84
2021/07/15 08:58:13;;;;;;;0.30;0.30;;;23.20;99.90;;;;;;5050386;28;20197;-83
2021/07/15 09:00:40;;;;;;;0.37;0.37;;;23.80;99.90;;;;;;5051824;28;20205;-84
2021/07/15 09:03:06;;;;;;;0.20;0.20;;;24.10;99.90;;;;;;5031319;28;20189;-83
2021/07/15 09:05:32;;;;;;;0.40;0.40;;;24.00;99.90;;;;;;5052980;28;20346;-83
2021/07/15 09:07:58;;;;;;;0.63;0.40;;;24.60;99.90;;;;;;5054007;28;20252;-83
2021/07/15 09:10:24;;;;;;;0.20;0.20;;;24.60;99.90;;;;;;5052240;28;20190;-83
2021/07/15 09:12:50;;;;;;;0.30;0.30;;;24.60;99.90;;;;;;5052380;28;20532;-84
2021/07/15 09:15:15;;;;;;;0.20;0.20;;;24.40;99.90;;;;;;5034667;28;20221;-84
2021/07/15 09:17:41;;;;;;;0.10;0.10;;;24.90;99.90;;;;;;5050140;28;20684;-83
2021/07/15 09:20:28;;;;;;;0.10;0.10;;;24.70;99.90;;;;;;5045206;28;20189;-84
2021/07/15 09:23:01;;;;;;;0.20;0.20;;;24.10;99.90;;;;;;5049831;28;20174;-84
2021/07/15 09:25:49;;;;;;;0.43;0.43;;;23.60;99.90;;;;;;5053051;28;20654;-84
2021/07/15 09:28:24;;;;;;;0.20;0.20;;;24.30;99.90;;;;;;5030187;28;20187;-84
2021/07/15 09:30:49;;;;;;;0.10;0.10;;;23.20;99.90;;;;;;5027791;28;20185;-84
2021/07/15 09:33:15;;;;;;;0.30;0.30;;;22.90;99.90;;;;;;5031147;28;20351;-84
2021/07/15 09:35:46;;;;;;;0.20;0.20;;;22.30;99.90;;;;;;5034075;28;20218;-84
2021/07/15 09:38:18;;;;;;;0.20;0.20;;;22.50;99.90;;;;;;5049201;28;20190;-84
2021/07/15 09:40:51;;;;;;;0.30;0.30;;;22.00;99.90;;;;;;5030833;28;20221;-84
2021/07/15 09:43:26;;;;;;;0.37;0.37;;;22.40;99.90;;;;;;5032962;28;20177;-85
2021/07/15 09:46:01;;;;;;;0.20;0.20;;;23.00;99.90;;;;;;5033539;28;20212;-85
2021/07/15 09:48:28;;;;;;;0.23;0.23;;;23.50;99.90;;;;;;5048698;28;20174;-85
2021/07/15 09:50:56;;;;;;;0.53;0.33;;;23.70;99.90;;;;;;5047174;28;20181;-85
2021/07/15 09:53:24;;;;;;;0.20;0.20;;;22.90;99.90;;;;;;5051945;28;20180;-85
2021/07/15 09:56:01;;;;;;;0.20;0.20;;;23.20;99.90;;;;;;5032364;28;20209;-84
2021/07/15 09:58:38;;;;;;;0.30;0.30;;;23.50;99.90;;;;;;5043880;28;20189;-85
2021/07/15 10:01:04;;;;;;;0.37;0.37;;;23.80;99.90;;;;;;5030845;28;20213;-85
2021/07/15 10:03:38;;;;;;;0.73;0.40;;;24.20;99.90;;;;;;5031258;28;20201;-84
2021/07/15 10:06:05;;;;;;;0.30;0.30;;;24.50;99.90;;;;;;5029826;28;20693;-84
2021/07/15 10:08:34;;;;;;;0.40;0.40;;;24.60;99.90;;;;;;5030125;28;20240;-84
2021/07/15 10:11:22;;;;;;;0.30;0.30;;;24.10;99.90;;;;;;5031936;28;20200;-85
2021/07/15 10:14:09;;;;;;;0.23;0.23;;;24.50;99.90;;;;;;5031881;28;20209;-85
2021/07/15 10:16:53;;;;;;;0.20;0.20;;;24.70;99.90;;;;;;5033022;28;20224;-85
2021/07/15 10:19:21;;;;;;;0.30;0.30;;;24.20;99.90;;;;;;5036019;28;20189;-84
2021/07/15 10:21:59;;;;;;;0.10;0.10;;;23.70;99.90;;;;;;5037958;28;20308;-84
2021/07/15 10:24:25;;;;;;;0.30;0.30;;;24.30;99.90;;;;;;5050379;28;20209;-83
2021/07/15 10:27:11;;;;;;;0.30;0.30;;;24.70;99.90;;;;;;5025881;28;20214;-85
2021/07/15 10:29:38;;;;;;;0.30;0.30;;;24.30;99.90;;;;;;5039412;28;20685;-84
2021/07/15 10:32:05;;;;;;;0.50;0.50;;;24.40;99.90;;;;;;5031425;28;20186;-84
2021/07/15 10:34:31;;;;;;;0.20;0.20;;;24.60;99.90;;;;;;5050318;28;20545;-85
2021/07/15 10:37:00;;;;;;;0.30;0.30;;;24.70;99.90;;;;;;5030379;28;20212;-84
2021/07/15 10:39:29;;;;;;;0.30;0.30;;;24.40;99.90;;;;;;5049940;28;20174;-83
2021/07/15 10:41:57;;;;;;;0.13;0.13;;;23.90;99.90;;;;;;5032991;28;20198;-83
2021/07/15 10:44:25;;;;;;;0.30;0.30;;;24.20;99.90;;;;;;5047794;28;20698;-84
2021/07/15 10:46:53;;;;;;;0.20;0.20;;;24.20;99.90;;;;;;5031242;28;20584;-84
2021/07/15 10:49:20;;;;;;;0.20;0.20;;;23.90;99.90;;;;;;5031477;28;20178;-85
2021/07/15 10:51:49;;;;;;;0.20;0.20;;;23.50;99.90;;;;;;5047994;28;20194;-85
2021/07/15 10:54:16;;;;;;;0.10;0.10;;;23.30;99.90;;;;;;5048332;28;20193;-85
2021/07/15 10:56:47;;;;;;;0.33;0.33;;;23.80;99.90;;;;;;5050202;28;20270;-85
2021/07/15 10:59:23;;;;;;;0.10;0.10;;;24.10;99.90;;;;;;5045541;28;20280;-85
2021/07/15 11:01:49;;;;;;;0.10;0.10;;;23.60;99.90;;;;;;5031057;28;20205;-85
2021/07/15 11:04:22;;;;;;;0.37;0.37;;;23.10;99.90;;;;;;5027343;28;20185;-85
2021/07/15 11:06:53;;;;;;;0.20;0.20;;;23.30;99.90;;;;;;5032760;28;20221;-84
2021/07/15 11:09:30;;;;;;;0.30;0.30;;;23.70;99.90;;;;;;5032829;28;20181;-84
2021/07/15 11:11:58;;;;;;;0.30;0.30;;;23.50;99.90;;;;;;5026484;28;20190;-83
2021/07/15 11:14:46;;;;;;;1.47;1.37;;;23.10;99.90;;;;;;5051268;28;20789;-84
2021/07/15 11:17:25;;;;;;;0.40;0.40;;;22.90;99.90;;;;;;5019578;28;20187;-83
2021/07/15 11:20:23;;;;;;;0.30;0.30;;;22.90;99.90;;;;;;5031863;28;20821;-84
2021/07/15 11:23:00;;;;;;;0.30;0.30;;;22.70;99.90;;;;;;5051902;28;20177;-83
2021/07/15 11:25:29;;;;;;;0.13;0.13;;;22.50;99.90;;;;;;5032740;28;20202;-83
2021/07/15 11:27:56;;;;;;;0.57;0.20;;;22.60;99.90;;;;;;5026174;28;20213;-84
2021/07/15 11:30:25;;;;;;;0.30;0.30;;;22.50;99.90;;;;;;5022851;28;20197;-84
2021/07/15 11:32:51;;;;;;;0.20;0.20;;;22.90;99.90;;;;;;5026117;28;20655;-83
2021/07/15 11:35:23;;;;;;;0.20;0.20;;;23.00;99.90;;;;;;5029159;28;20263;-83
2021/07/15 11:38:12;;;;;;;0.50;0.50;;;22.80;99.90;;;;;;5031008;28;20195;-82
2021/07/15 11:40:37;;;;;;;0.20;0.20;;;23.10;99.90;;;;;;5031108;28;20869;-83
2021/07/15 11:43:18;;;;;;;0.30;0.30;;;22.80;99.90;;;;;;5032565;28;20180;-83
2021/07/15 11:46:00;;;;;;;0.27;0.27;;;23.30;99.90;;;;;;5050455;28;20548;-83
2021/07/15 11:48:58;;;;;;;0.20;0.20;;;23.80;99.90;;;;;;5026344;28;20688;-83
2021/07/15 11:51:28;;;;;;;0.23;0.23;;;24.10;99.90;;;;;;5030783;28;20184;-84
2021/07/15 11:54:24;;;;;;;0.30;0.30;;;24.00;99.90;;;;;;5031918;28;20192;-83
2021/07/15 11:57:12;;;;;;;0.10;0.10;;;23.70;99.90;;;;;;5046879;28;20220;-83
2021/07/15 11:59:39;;;;;;;0.20;0.20;;;24.10;99.90;;;;;;5032552;28;20330;-83
2021/07/15 12:02:24;;;;;;;0.37;0.37;;;23.70;99.90;;;;;;5028183;28;20209;-83
2021/07/15 12:05:13;;;;;;;0.20;0.20;;;24.20;99.90;;;;;;5032493;28;20185;-83
2021/07/15 12:07:46;;;;;;;0.20;0.20;;;24.70;99.90;;;;;;5047179;28;20177;-84
2021/07/15 12:10:26;;;;;;;0.30;0.30;;;25.20;99.90;;;;;;5035142;28;20654;-84
2021/07/15 12:12:55;;;;;;;0.10;0.10;;;25.60;99.90;;;;;;5035285;28;20235;-83
2021/07/15 12:15:24;;;;;;;0.10;0.10;;;25.70;99.90;;;;;;5034760;28;20224;-84
2021/07/15 12:17:56;;;;;;;3.00;0.47;;;26.00;99.90;;;;;;5031052;28;20653;-84
2021/07/15 12:20:24;;;;;;;0.40;0.13;;;26.30;99.90;;;;;;5027353;28;20206;-84
2021/07/15 12:22:55;;;;;;;0.20;0.20;;;26.80;99.90;;;;;;5045806;28;20209;-84
2021/07/15 12:25:33;;;;;;;0.20;0.20;;;26.80;99.90;;;;;;5027966;28;20206;-84
2021/07/15 12:28:06;;;;;;;0.17;0.17;;;26.70;99.90;;;;;;5016112;28;20182;-84
2021/07/15 12:30:40;;;;;;;0.10;0.10;;;26.50;99.90;;;;;;5030591;28;20186;-83
2021/07/15 12:33:06;;;;;;;0.10;0.10;;;26.20;99.90;;;;;;5032624;28;20193;-83
2021/07/15 12:35:35;;;;;;;0.23;0.23;;;26.30;99.90;;;;;;5026377;28;20198;-83
2021/07/15 12:38:21;;;;;;;0.20;0.20;;;26.50;99.90;;;;;;5050808;28;20189;-84
2021/07/15 12:40:48;;;;;;;0.53;0.20;;;26.60;99.90;;;;;;5023827;28;20591;-83
2021/07/15 12:43:21;;;;;;;0.17;0.17;;;26.40;99.90;;;;;;5038401;28;20178;-84
2021/07/15 12:45:48;;;;;;;0.20;0.20;;;26.30;99.90;;;;;;5030923;28;20210;-84
2021/07/15 12:48:18;;;;;;;0.17;0.17;;;26.30;99.90;;;;;;5034912;28;20572;-84
2021/07/15 12:50:45;;;;;;;0.20;0.20;;;26.50;99.90;;;;;;5034417;28;20185;-83
2021/07/15 12:53:13;;;;;;;0.13;0.13;;;26.70;99.90;;;;;;5051096;28;20619;-85
2021/07/15 12:55:41;;;;;;;0.20;0.20;;;26.70;99.90;;;;;;5054553;28;20281;-82
2021/07/15 12:58:07;;;;;;;0.30;0.30;;;26.90;99.90;;;;;;5033883;28;20204;-82
2021/07/15 13:00:36;;;;;;;0.20;0.20;;;27.30;99.90;;;;;;5034885;28;20209;-83
2021/07/15 13:03:03;;;;;;;0.30;0.30;;;27.20;99.90;;;;;;5047593;28;20193;-83
2021/07/15 13:05:30;;;;;;;0.20;0.20;;;27.60;99.90;;;;;;5025191;28;20252;-84